Terminal Aerodrome Forecast
Issued by NWS

Home | Current Version | Previous Version | Text Only | Print | Product List | Glossary On
Versions: 1 2 3 4 5 6 7 8 9 10 11 12 13 14 15 16 17
000
FTUS41 KPBZ 290528
TAFBVI
TAF
KBVI 290528Z 2906/3006 08008KT P6SM VCSH OVC020
      TEMPO 2909/2912 OVC008
     FM291500 09009KT 6SM -SHRA OVC020
     FM300100 10012G20KT 5SM SHRA OVC015
      AMD NOT SKED=

USA.gov is the U.S. government's official web portal to all federal, state and local government web resources and services.